Ary, Kentucky
Current Conditions -  °F | °C
As of 4:53 AM on Wednesday 22 Oct 2014 (Local Time) from KJKL Reporting Station
Clear Clear  
Wind Chill:   Ceiling: Unl
Heat Index:   Visibility: 10mi
Dew Point:   Wind: 3mph
Humidity: 89%   Direction: 360°N
Pressure: 30.14"   Gusts: NA
Location:  37.37°N, 83.15°W
Report Text: KJKL 220853Z AUTO 36003KT 10SM CLR 06/04 A3014 RMK AO2 SLP208 T00560039 53006
Loading
Personal Weather Stations






























Interactive Weather Map
Tropical Storm Tracking
New forecast layout! Learn more

10-Day Weather Forecast

Advertisements
Track Severe Weather on mobile